Time;durP1;ratioP1;P1;durP2;ratioP2;P2;SDS_P1;SDS_P2;PMS_P1;PMS_P2;Temp;Humidity;BMP_temperature;BMP_pressure;BME280_temperature;BME280_humidity;BME280_pressure;Samples;Min_cycle;Max_cycle;Signal;HPM_P1;HPM_P2
2022/08/18 00:01:09;;;;;;;6.53;5.07;;;;;;;23.38;48.11;94771.03;5041329;28;20267;-62
2022/08/18 00:03:34;;;;;;;8.65;5.45;;;;;;;23.39;47.83;94769.16;5039419;28;20263;-62
2022/08/18 00:06:00;;;;;;;6.47;5.40;;;;;;;23.28;48.44;94771.66;5039614;28;20301;-61
2022/08/18 00:08:27;;;;;;;9.30;5.47;;;;;;;23.28;48.83;94774.34;5041924;28;20217;-61
2022/08/18 00:10:54;;;;;;;7.72;5.57;;;;;;;23.47;48.18;94774.16;5034386;28;20201;-61
2022/08/18 00:13:20;;;;;;;8.50;5.60;;;;;;;23.28;48.33;94771.66;5037605;28;20229;-61
2022/08/18 00:15:45;;;;;;;6.20;5.22;;;;;;;23.13;49.10;94774.00;5042923;28;20579;-63
2022/08/18 00:18:11;;;;;;;7.60;5.30;;;;;;;23.16;48.53;94773.53;5039983;28;20214;-62
2022/08/18 00:20:36;;;;;;;6.30;5.22;;;;;;;23.18;48.82;94770.63;5040488;28;20229;-61
2022/08/18 00:23:01;;;;;;;5.88;5.28;;;;;;;23.08;49.10;94773.91;5041114;28;20225;-62
2022/08/18 00:25:27;;;;;;;7.53;5.20;;;;;;;23.14;48.83;94770.28;5037271;28;20252;-62
2022/08/18 00:27:52;;;;;;;5.68;5.15;;;;;;;23.10;48.85;94771.81;5040546;28;20806;-62
2022/08/18 00:30:20;;;;;;;7.30;5.18;;;;;;;23.09;48.93;94767.47;5037453;28;20300;-62
2022/08/18 00:32:54;;;;;;;6.15;4.97;;;;;;;22.94;49.33;94769.81;5040736;28;20218;-62
2022/08/18 00:35:28;;;;;;;5.63;5.13;;;;;;;22.95;49.54;94771.44;5045030;28;20209;-62
2022/08/18 00:37:57;;;;;;;7.20;5.50;;;;;;;22.90;49.79;94774.81;5048795;28;20209;-62
2022/08/18 00:40:28;;;;;;;6.43;5.38;;;;;;;22.83;49.82;94772.28;5034932;28;20336;-62
2022/08/18 00:42:57;;;;;;;7.22;5.65;;;;;;;22.65;50.32;94773.19;5039808;28;20257;-63
2022/08/18 00:45:28;;;;;;;7.13;5.15;;;;;;;22.71;50.47;94768.75;5033992;28;20213;-63
2022/08/18 00:47:54;;;;;;;8.25;5.53;;;;;;;22.72;50.25;94775.78;5037879;28;20249;-62
2022/08/18 00:50:50;;;;;;;6.85;5.05;;;;;;;22.11;51.89;94777.75;5035569;28;20198;-62
2022/08/18 00:53:30;;;;;;;6.80;5.50;;;;;;;22.09;52.30;94779.03;5037424;28;20214;-63
2022/08/18 00:56:05;;;;;;;8.50;5.97;;;;;;;22.32;52.02;94784.47;5043200;28;20205;-62
2022/08/18 00:58:35;;;;;;;5.85;5.25;;;;;;;22.49;51.28;94789.97;5036530;28;20224;-62
2022/08/18 01:01:04;;;;;;;8.73;5.35;;;;;;;22.45;51.41;94794.13;5034079;28;20214;-62
2022/08/18 01:03:32;;;;;;;6.53;5.60;;;;;;;22.48;51.20;94788.34;5034655;28;20231;-63
2022/08/18 01:05:57;;;;;;;5.90;5.40;;;;;;;22.54;51.02;94791.97;5035464;28;20225;-62
2022/08/18 01:08:23;;;;;;;7.68;5.70;;;;;;;22.37;51.23;94775.72;5040748;28;20210;-62
2022/08/18 01:10:49;;;;;;;6.13;5.53;;;;;;;22.15;52.39;94791.50;5040441;28;20434;-62
2022/08/18 01:13:15;;;;;;;6.45;5.80;;;;;;;22.30;52.03;94789.25;5042173;28;20260;-62
2022/08/18 01:15:40;;;;;;;6.00;5.40;;;;;;;22.24;51.90;94782.94;5033579;28;20783;-62
2022/08/18 01:23:44;;;;;;;6.07;5.47;;;;;;;22.29;51.67;94795.63;5035540;28;20237;-62
2022/08/18 01:26:10;;;;;;;5.47;5.07;;;;;;;22.25;51.67;94791.78;5036494;28;20205;-62
2022/08/18 01:28:39;;;;;;;8.80;5.28;;;;;;;22.25;51.70;94786.44;5042652;28;20309;-61
2022/08/18 01:31:05;;;;;;;5.95;5.45;;;;;;;22.16;51.86;94780.56;5041649;28;20218;-63
2022/08/18 01:33:35;;;;;;;9.23;5.90;;;;;;;22.25;51.51;94789.13;5038534;28;20288;-62
2022/08/18 01:36:11;;;;;;;6.30;5.22;;;;;;;22.29;50.99;94779.56;5041244;28;20696;-63
2022/08/18 01:38:37;;;;;;;7.35;5.68;;;;;;;22.23;51.52;94780.47;5032983;28;20303;-63
2022/08/18 01:41:03;;;;;;;6.65;6.05;;;;;;;22.05;52.17;94785.88;5036989;28;20235;-63
2022/08/18 01:43:29;;;;;;;6.10;5.38;;;;;;;22.08;51.88;94788.09;5037113;28;20307;-63
2022/08/18 01:45:56;;;;;;;6.22;5.63;;;;;;;21.91;52.58;94780.72;5033823;28;20309;-63
2022/08/18 01:48:21;;;;;;;6.38;5.72;;;;;;;21.85;52.63;94768.25;5033782;28;20221;-63
2022/08/18 01:50:48;;;;;;;6.18;5.60;;;;;;;21.80;53.05;94768.94;5038328;28;20210;-62
2022/08/18 01:53:13;;;;;;;5.85;5.35;;;;;;;21.92;53.06;94774.34;5040976;28;20239;-62
2022/08/18 01:55:43;;;;;;;7.10;5.45;;;;;;;21.91;52.92;94770.00;5037123;28;20225;-63
2022/08/18 01:58:09;;;;;;;7.05;5.97;;;;;;;21.90;53.56;94776.41;5037928;28;20288;-63
2022/08/18 02:00:35;;;;;;;7.60;6.03;;;;;;;22.11;52.85;94772.41;5039033;28;20765;-62
2022/08/18 02:03:06;;;;;;;7.38;6.25;;;;;;;22.10;53.02;94756.56;5042749;28;20221;-62
2022/08/18 02:05:39;;;;;;;6.43;5.82;;;;;;;21.97;53.66;94774.47;5039302;28;20616;-61
2022/08/18 02:08:06;;;;;;;6.57;6.07;;;;;;;21.73;54.37;94773.56;5041089;28;20211;-62
2022/08/18 02:10:32;;;;;;;6.43;5.82;;;;;;;21.58;54.61;94771.28;5038007;28;20252;-62
2022/08/18 02:12:57;;;;;;;8.02;6.03;;;;;;;21.75;54.34;94776.00;5043343;28;20316;-63
2022/08/18 02:15:22;;;;;;;7.20;5.93;;;;;;;21.75;54.38;94782.16;5035994;28;20267;-63
2022/08/18 02:17:48;;;;;;;7.72;5.97;;;;;;;21.95;54.08;94789.13;5034573;28;20214;-63
2022/08/18 02:20:16;;;;;;;8.57;6.38;;;;;;;21.94;53.82;94772.22;5038108;28;20338;-63
2022/08/18 02:22:42;;;;;;;7.32;6.60;;;;;;;21.79;54.26;94780.69;5032723;28;20225;-62
2022/08/18 02:25:08;;;;;;;7.05;6.35;;;;;;;21.50;54.99;94773.47;5038450;28;20232;-63
2022/08/18 02:27:34;;;;;;;9.77;6.50;;;;;;;21.62;54.57;94784.22;5038471;28;20275;-63
2022/08/18 02:30:01;;;;;;;8.27;6.38;;;;;;;21.77;53.81;94787.31;5031815;28;20221;-62
2022/08/18 02:32:27;;;;;;;7.45;6.20;;;;;;;21.56;54.62;94786.75;5038246;28;20225;-62
2022/08/18 02:34:53;;;;;;;7.43;6.03;;;;;;;21.49;55.42;94780.69;5037281;28;20210;-62
2022/08/18 02:37:18;;;;;;;9.38;6.40;;;;;;;21.39;55.55;94775.03;5047739;28;20267;-62
2022/08/18 02:39:44;;;;;;;8.52;6.57;;;;;;;21.35;55.72;94768.47;5042579;28;20238;-62
2022/08/18 02:42:09;;;;;;;7.68;6.28;;;;;;;21.45;55.28;94768.78;5034187;28;20230;-61
2022/08/18 02:44:35;;;;;;;8.75;6.40;;;;;;;21.40;55.63;94773.19;5037481;28;20222;-62
2022/08/18 02:47:01;;;;;;;8.75;6.25;;;;;;;21.47;55.44;94777.41;5034534;28;20259;-62
2022/08/18 02:49:27;;;;;;;8.80;6.45;;;;;;;21.40;55.35;94776.66;5021205;28;20221;-62
2022/08/18 02:51:53;;;;;;;9.43;6.40;;;;;;;21.43;55.20;94781.56;5037714;28;20217;-62
2022/08/18 02:54:21;;;;;;;6.80;6.13;;;;;;;21.41;55.12;94783.66;5040633;28;20214;-61
2022/08/18 02:56:50;;;;;;;8.73;6.55;;;;;;;21.36;55.22;94781.63;5040709;28;20309;-62
2022/08/18 02:59:21;;;;;;;8.73;6.30;;;;;;;21.27;55.97;94785.63;5042476;28;20208;-61
2022/08/18 03:01:52;;;;;;;8.07;6.57;;;;;;;21.27;56.11;94790.16;5047706;28;20237;-62
2022/08/18 03:04:25;;;;;;;8.43;6.70;;;;;;;21.28;55.77;94781.13;5037850;28;20233;-63
2022/08/18 03:06:51;;;;;;;6.88;6.25;;;;;;;21.24;55.67;94787.94;5052131;28;20229;-62
2022/08/18 03:09:17;;;;;;;7.95;7.13;;;;;;;21.35;56.27;94789.84;5037153;28;20271;-62
2022/08/18 03:11:44;;;;;;;7.53;6.53;;;;;;;21.21;56.23;94783.03;5043424;28;20225;-63
2022/08/18 03:14:10;;;;;;;10.80;6.45;;;;;;;21.13;56.70;94787.63;5052724;28;20202;-63
2022/08/18 03:16:39;;;;;;;7.18;6.53;;;;;;;21.03;57.09;94781.19;5042358;28;20260;-62
2022/08/18 03:19:05;;;;;;;7.78;6.88;;;;;;;21.07;56.83;94790.41;5035175;28;20217;-63
2022/08/18 03:21:35;;;;;;;8.20;6.60;;;;;;;21.00;57.21;94797.66;5039697;28;20237;-63
2022/08/18 03:24:00;;;;;;;9.48;6.88;;;;;;;20.69;58.26;94784.19;5035938;28;20225;-63
2022/08/18 03:26:26;;;;;;;6.72;6.10;;;;;;;20.70;57.99;94799.19;5040745;28;20202;-62
2022/08/18 03:28:54;;;;;;;9.77;6.45;;;;;;;20.73;57.73;94792.59;5042642;28;20202;-62
2022/08/18 03:31:22;;;;;;;10.30;6.78;;;;;;;20.86;57.55;94799.66;5045789;28;20228;-62
2022/08/18 03:33:48;;;;;;;9.95;6.70;;;;;;;20.96;56.85;94797.31;5037862;28;20426;-62
2022/08/18 03:36:20;;;;;;;8.15;7.00;;;;;;;20.89;57.37;94802.69;5038245;28;20228;-62
2022/08/18 03:38:46;;;;;;;8.05;6.63;;;;;;;20.98;56.95;94800.53;5037806;28;20230;-63
2022/08/18 03:41:15;;;;;;;9.50;6.55;;;;;;;20.89;57.37;94797.34;5038642;28;20245;-62
2022/08/18 03:43:41;;;;;;;7.57;6.70;;;;;;;20.87;57.39;94799.41;5039811;28;20252;-62
2022/08/18 03:46:10;;;;;;;11.88;6.55;;;;;;;20.90;57.28;94801.69;5040663;28;20221;-62
2022/08/18 03:48:40;;;;;;;9.23;7.05;;;;;;;20.91;57.27;94795.28;5039795;28;20420;-62
2022/08/18 03:51:09;;;;;;;7.57;6.85;;;;;;;20.79;57.75;94799.72;5043823;28;20205;-62
2022/08/18 03:53:35;;;;;;;10.00;7.57;;;;;;;20.86;57.68;94797.00;5038911;28;20245;-62
2022/08/18 03:56:01;;;;;;;7.57;6.70;;;;;;;20.98;57.17;94800.53;5039848;28;20202;-62
2022/08/18 03:58:27;;;;;;;10.52;7.60;;;;;;;20.96;56.67;94802.66;5036024;28;20237;-62
2022/08/18 04:00:53;;;;;;;13.45;7.40;;;;;;;20.90;56.96;94798.16;5039657;28;20312;-62
2022/08/18 04:03:19;;;;;;;11.75;7.30;;;;;;;20.91;56.50;94800.63;5039941;28;20228;-62
2022/08/18 04:05:45;;;;;;;13.25;7.53;;;;;;;21.06;56.24;94813.66;5043908;28;20276;-62
2022/08/18 04:08:12;;;;;;;10.45;7.03;;;;;;;21.02;56.04;94814.31;5041698;28;20209;-63
2022/08/18 04:10:38;;;;;;;11.88;6.85;;;;;;;20.96;56.50;94812.53;5035099;28;20289;-62
2022/08/18 04:13:06;;;;;;;8.80;7.40;;;;;;;20.95;56.57;94818.88;5039517;28;20302;-63
2022/08/18 04:15:32;;;;;;;11.95;7.93;;;;;;;20.95;56.58;94819.69;5040779;28;20222;-63
2022/08/18 04:18:06;;;;;;;10.05;7.50;;;;;;;20.90;57.19;94812.38;5035400;28;20300;-63
2022/08/18 04:20:32;;;;;;;8.27;7.32;;;;;;;20.96;56.83;94817.88;5042440;28;20200;-63
2022/08/18 04:22:58;;;;;;;11.95;7.78;;;;;;;21.10;56.08;94820.16;5040536;28;20217;-62
2022/08/18 04:25:25;;;;;;;10.13;7.97;;;;;;;21.07;56.29;94825.16;5039601;28;20220;-62
2022/08/18 04:27:53;;;;;;;13.88;8.57;;;;;;;21.07;56.55;94825.16;5032635;28;20222;-62
2022/08/18 04:30:19;;;;;;;10.27;8.57;;;;;;;20.78;57.64;94822.13;5038519;28;20221;-62
2022/08/18 04:32:45;;;;;;;10.77;8.10;;;;;;;20.81;57.84;94828.91;5038576;28;20221;-62
2022/08/18 04:35:10;;;;;;;11.18;8.55;;;;;;;21.08;56.95;94832.94;5035226;28;20210;-62
2022/08/18 04:37:37;;;;;;;11.75;8.57;;;;;;;21.19;56.58;94833.25;5043285;28;20217;-62
2022/08/18 04:40:04;;;;;;;10.82;8.32;;;;;;;20.95;57.48;94838.41;5043851;28;20246;-62
2022/08/18 04:42:30;;;;;;;10.93;8.77;;;;;;;20.96;57.41;94837.41;5041664;28;20312;-62
2022/08/18 04:44:56;;;;;;;13.20;9.45;;;;;;;21.21;56.63;94837.34;5035925;28;20301;-62
2022/08/18 04:47:22;;;;;;;10.65;8.45;;;;;;;21.19;56.03;94835.91;5035877;28;20669;-62
2022/08/18 04:49:49;;;;;;;14.05;8.65;;;;;;;21.22;56.07;94836.28;5036136;28;20225;-60
2022/08/18 04:55:02;;;;;;;11.20;7.72;;;;;;;21.24;56.35;94836.06;5035239;28;20224;-60
2022/08/18 04:57:30;;;;;;;9.95;8.20;;;;;;;21.24;56.65;94839.56;5045175;28;20239;-60
2022/08/18 04:59:57;;;;;;;12.55;8.15;;;;;;;21.26;56.84;94834.00;5042839;28;20228;-61
2022/08/18 05:02:22;;;;;;;11.05;8.38;;;;;;;21.36;56.47;94842.31;5032162;28;20213;-60
2022/08/18 05:04:48;;;;;;;10.50;8.25;;;;;;;21.38;56.27;94847.47;5034200;28;20228;-60
2022/08/18 05:07:16;;;;;;;10.10;8.30;;;;;;;21.48;56.54;94842.41;5031325;28;20226;-60
2022/08/18 05:09:41;;;;;;;11.90;8.10;;;;;;;21.70;56.00;94840.09;5041094;28;20285;-60
2022/08/18 05:12:11;;;;;;;10.10;9.10;;;;;;;21.96;54.93;94845.09;5040051;28;20320;-60
2022/08/18 05:14:37;;;;;;;9.40;8.50;;;;;;;21.96;54.25;94847.78;5037379;28;20218;-61
2022/08/18 05:17:02;;;;;;;9.10;8.05;;;;;;;21.80;54.53;94851.09;5039126;28;20205;-60
2022/08/18 05:19:29;;;;;;;8.77;7.82;;;;;;;21.61;55.26;94841.44;5035882;28;20222;-60
2022/08/18 05:21:56;;;;;;;8.57;7.57;;;;;;;21.69;55.29;94849.97;5034018;28;20312;-60
2022/08/18 05:24:24;;;;;;;8.68;7.85;;;;;;;21.78;55.35;94855.84;5038189;28;20232;-60
2022/08/18 05:26:51;;;;;;;11.13;8.55;;;;;;;21.71;54.84;94853.25;5042470;28;20257;-60
2022/08/18 05:29:17;;;;;;;9.18;8.07;;;;;;;21.97;54.63;94861.97;5037888;28;20228;-61
2022/08/18 05:31:45;;;;;;;8.40;7.60;;;;;;;22.15;53.11;94847.72;5035877;28;20198;-59
2022/08/18 05:34:10;;;;;;;8.10;7.35;;;;;;;22.10;53.28;94850.28;5034230;28;20236;-60
2022/08/18 05:36:45;;;;;;;13.65;7.97;;;;;;;22.18;53.13;94863.34;5033981;28;20222;-60
2022/08/18 05:39:13;;;;;;;8.40;7.70;;;;;;;21.96;53.89;94865.69;5032247;28;20221;-60
2022/08/18 05:41:41;;;;;;;9.75;8.25;;;;;;;22.08;53.00;94869.25;5037299;28;20229;-60
2022/08/18 05:44:13;;;;;;;7.97;7.05;;;;;;;22.19;53.08;94857.00;5037290;28;20210;-63
2022/08/18 05:46:51;;;;;;;8.90;8.00;;;;;;;22.28;52.57;94860.97;5031385;28;20281;-61
2022/08/18 05:49:18;;;;;;;10.52;7.70;;;;;;;22.33;52.10;94860.28;5038686;28;20224;-61
2022/08/18 05:51:53;;;;;;;8.80;7.93;;;;;;;22.41;51.95;94859.97;5035139;28;20218;-60
2022/08/18 05:57:10;;;;;;;11.70;8.75;;;;;;;22.55;51.89;94856.03;5033536;28;20245;-62
2022/08/18 05:59:39;;;;;;;9.45;8.55;;;;;;;22.60;51.78;94858.00;5040174;28;20313;-61
2022/08/18 06:02:14;;;;;;;10.07;8.48;;;;;;;22.43;52.36;94866.72;5031546;28;20224;-61
2022/08/18 06:04:49;;;;;;;11.40;9.10;;;;;;;22.73;51.48;94860.50;5032774;28;20230;-60
2022/08/18 06:07:21;;;;;;;9.57;8.57;;;;;;;22.68;50.91;94866.53;5037355;28;20236;-59
2022/08/18 06:09:52;;;;;;;9.75;8.88;;;;;;;22.83;50.47;94860.75;5032617;28;20257;-62
2022/08/18 06:12:26;;;;;;;10.13;9.13;;;;;;;22.88;50.56;94862.69;5033330;28;20221;-62
2022/08/18 06:15:01;;;;;;;11.23;9.02;;;;;;;23.06;50.22;94856.44;5030009;28;20236;-60
2022/08/18 06:17:41;;;;;;;10.98;9.55;;;;;;;23.13;50.23;94854.47;5032854;28;20683;-61
2022/08/18 06:20:35;;;;;;;10.60;9.40;;;;;;;22.88;51.00;94854.66;5036419;28;20225;-60
2022/08/18 06:23:39;;;;;;;9.63;8.27;;;;;;;22.93;50.88;94856.66;5034283;28;20225;-61
2022/08/18 06:26:13;;;;;;;9.20;8.40;;;;;;;23.14;50.05;94855.28;5040458;28;20233;-61
2022/08/18 06:28:52;;;;;;;9.27;8.38;;;;;;;23.22;50.36;94857.63;5033752;28;20236;-60
2022/08/18 06:31:37;;;;;;;10.77;8.73;;;;;;;23.46;49.27;94858.41;5035769;28;20225;-60
2022/08/18 06:34:28;;;;;;;10.27;9.38;;;;;;;23.53;48.71;94859.09;5043003;28;20233;-60
2022/08/18 06:37:06;;;;;;;11.57;9.07;;;;;;;23.56;48.79;94866.69;5027258;28;20233;-62
2022/08/18 06:39:43;;;;;;;11.88;9.55;;;;;;;23.58;48.62;94861.09;5051182;28;20332;-61
2022/08/18 06:42:09;;;;;;;13.20;8.60;;;;;;;23.70;48.65;94864.53;5038522;28;20240;-61
2022/08/18 06:44:44;;;;;;;11.15;8.77;;;;;;;23.76;48.28;94859.09;5043717;28;20226;-60
2022/08/18 06:47:16;;;;;;;10.88;9.77;;;;;;;23.84;48.36;94857.06;5040855;28;20209;-60
2022/08/18 06:49:50;;;;;;;10.15;9.07;;;;;;;23.91;48.41;94857.75;5035465;28;20248;-59
2022/08/18 06:52:28;;;;;;;10.02;8.45;;;;;;;23.98;48.64;94855.75;5038377;28;20253;-60
2022/08/18 06:55:06;;;;;;;10.00;8.45;;;;;;;24.10;47.98;94848.44;5036554;28;20229;-59
2022/08/18 06:57:33;;;;;;;12.68;8.93;;;;;;;24.20;48.42;94842.44;5037700;28;20248;-60
2022/08/18 07:00:21;;;;;;;11.60;8.20;;;;;;;24.28;48.52;94838.56;5037902;28;20222;-61
2022/08/18 07:02:53;;;;;;;9.32;7.35;;;;;;;24.37;48.22;94845.97;5041171;28;20321;-60
2022/08/18 07:05:27;;;;;;;7.65;6.88;;;;;;;24.57;47.27;94837.50;5051003;28;20209;-59
2022/08/18 07:08:13;;;;;;;8.77;7.70;;;;;;;24.63;47.34;94830.31;5037392;28;20215;-60
2022/08/18 07:10:43;;;;;;;8.40;6.82;;;;;;;24.76;47.25;94829.19;5037492;28;20252;-61
2022/08/18 07:13:12;;;;;;;7.35;6.65;;;;;;;24.84;46.69;94831.47;5052926;28;20225;-59
2022/08/18 07:15:38;;;;;;;6.78;6.10;;;;;;;24.86;46.54;94823.97;5041323;28;20230;-60
2022/08/18 07:18:06;;;;;;;7.78;6.55;;;;;;;25.04;45.81;94830.94;5043761;28;20213;-60
2022/08/18 07:20:42;;;;;;;6.53;5.97;;;;;;;25.14;45.37;94824.91;5037649;28;20201;-60
2022/08/18 07:23:08;;;;;;;8.27;6.05;;;;;;;25.20;45.60;94824.75;5038011;28;20213;-60
2022/08/18 07:25:44;;;;;;;8.60;6.28;;;;;;;25.26;45.74;94815.72;5041261;28;20218;-60
2022/08/18 07:28:30;;;;;;;6.47;5.88;;;;;;;25.41;44.67;94809.69;5042517;28;20287;-60
2022/08/18 07:31:18;;;;;;;6.95;6.30;;;;;;;25.53;44.36;94818.47;5038180;28;20221;-62
2022/08/18 07:33:50;;;;;;;7.20;6.20;;;;;;;25.63;44.05;94819.66;5037352;28;20305;-62
2022/08/18 07:36:18;;;;;;;6.68;6.07;;;;;;;25.69;43.67;94821.38;5045275;28;20268;-62
2022/08/18 07:39:13;;;;;;;10.98;6.43;;;;;;;25.77;43.20;94818.22;5041799;28;20233;-61
2022/08/18 07:41:49;;;;;;;7.28;5.88;;;;;;;25.78;42.95;94822.53;5030629;28;20342;-61
2022/08/18 07:44:32;;;;;;;7.60;5.70;;;;;;;25.85;42.65;94825.06;5031223;28;20217;-59
2022/08/18 07:47:05;;;;;;;8.70;5.80;;;;;;;25.91;42.43;94816.78;5036418;28;20648;-60
2022/08/18 07:49:34;;;;;;;9.55;6.07;;;;;;;26.05;42.34;94819.91;5047728;28;20899;-61
2022/08/18 07:52:13;;;;;;;6.93;5.75;;;;;;;26.03;42.20;94818.53;5042015;28;20217;-60
2022/08/18 07:54:49;;;;;;;7.50;5.97;;;;;;;26.11;42.37;94824.28;5047271;28;20228;-60
2022/08/18 07:57:19;;;;;;;12.65;6.45;;;;;;;26.21;42.22;94818.19;5038946;28;20221;-60
2022/08/18 08:00:18;;;;;;;14.27;6.80;;;;;;;26.26;42.36;94818.22;5035879;28;20226;-59
2022/08/18 08:02:52;;;;;;;7.15;5.72;;;;;;;26.32;42.99;94819.09;5048016;28;20281;-59
2022/08/18 08:05:34;;;;;;;6.72;5.93;;;;;;;26.24;43.05;94814.16;5040519;28;20202;-59
2022/08/18 08:08:12;;;;;;;7.10;5.72;;;;;;;26.26;44.88;94814.72;5047451;28;20225;-59
2022/08/18 08:10:55;;;;;;;9.05;6.80;;;;;;;26.37;43.37;94819.16;5038452;28;20232;-61
2022/08/18 08:13:27;;;;;;;6.72;5.93;;;;;;;26.47;41.99;94816.56;5034564;28;20263;-60
2022/08/18 08:16:10;;;;;;;7.88;5.40;;;;;;;26.54;41.67;94810.97;5032829;28;20648;-60
2022/08/18 08:18:45;;;;;;;6.25;5.60;;;;;;;26.56;41.12;94822.31;5033140;28;20218;-60
2022/08/18 08:21:16;;;;;;;6.65;5.82;;;;;;;26.59;40.80;94813.69;5033844;28;20232;-60
2022/08/18 08:23:53;;;;;;;8.35;6.43;;;;;;;26.58;42.06;94815.59;5036161;28;20250;-60
2022/08/18 08:26:25;;;;;;;8.02;5.25;;;;;;;26.66;41.20;94814.31;5040454;28;20209;-60
2022/08/18 08:29:20;;;;;;;6.15;5.50;;;;;;;26.67;41.38;94815.94;5044639;28;20687;-59
2022/08/18 08:32:09;;;;;;;6.88;5.30;;;;;;;26.68;41.04;94814.88;5034744;28;20276;-59
2022/08/18 08:34:56;;;;;;;4.93;4.43;;;;;;;26.74;39.22;94821.13;5037972;28;20664;-59
2022/08/18 08:37:44;;;;;;;6.22;5.28;;;;;;;26.82;38.60;94816.06;5028721;28;20342;-59
2022/08/18 08:40:22;;;;;;;5.60;5.03;;;;;;;26.87;38.45;94809.09;5040838;28;20238;-59
2022/08/18 08:42:57;;;;;;;4.85;4.40;;;;;;;26.91;38.18;94804.78;5040185;28;20229;-59
2022/08/18 08:45:30;;;;;;;5.93;5.20;;;;;;;26.97;39.48;94826.16;5043900;28;20619;-59
2022/08/18 08:48:25;;;;;;;7.60;4.82;;;;;;;27.10;38.46;94811.38;5040062;28;20222;-60
2022/08/18 08:50:56;;;;;;;5.22;4.75;;;;;;;27.12;39.25;94811.94;5040614;28;20501;-59
2022/08/18 08:53:34;;;;;;;6.05;5.45;;;;;;;27.09;39.96;94812.47;5041287;28;20237;-58
2022/08/18 08:56:06;;;;;;;5.85;5.20;;;;;;;27.15;39.11;94805.22;5031426;28;20224;-60
2022/08/18 08:58:54;;;;;;;7.38;5.60;;;;;;;27.21;38.91;94810.41;5033320;28;20221;-61
2022/08/18 09:01:29;;;;;;;5.60;4.30;;;;;;;27.27;37.08;94808.56;5034220;28;20221;-59
2022/08/18 09:04:27;;;;;;;5.68;4.18;;;;;;;27.19;37.83;94800.97;5045958;28;20243;-59
2022/08/18 09:07:05;;;;;;;7.18;4.50;;;;;;;27.30;36.59;94804.53;4955461;28;20239;-59
2022/08/18 09:09:43;;;;;;;5.25;4.35;;;;;;;27.34;36.49;94798.31;4953220;28;20232;-60
2022/08/18 09:12:27;;;;;;;7.82;4.53;;;;;;;27.32;38.78;94791.56;4940595;28;20229;-59
2022/08/18 09:15:04;;;;;;;5.63;4.70;;;;;;;27.50;35.71;94804.63;4951784;28;20239;-59
2022/08/18 09:17:56;;;;;;;7.47;4.97;;;;;;;27.61;37.39;94790.09;4948463;28;20220;-60
2022/08/18 09:20:59;;;;;;;6.13;5.13;;;;;;;27.68;36.75;94795.25;4942505;28;20283;-59
2022/08/18 09:23:34;;;;;;;7.50;4.95;;;;;;;27.70;37.70;94785.00;4957520;28;20598;-59
2022/08/18 09:26:40;;;;;;;5.28;4.57;;;;;;;27.82;37.53;94782.09;4956489;28;20212;-59
2022/08/18 09:29:38;;;;;;;7.10;4.68;;;;;;;28.01;34.07;94785.91;4957878;28;20232;-59
2022/08/18 09:32:18;;;;;;;4.65;4.22;;;;;;;28.06;34.33;94785.94;4943184;28;20235;-59
2022/08/18 09:35:02;;;;;;;4.85;4.45;;;;;;;28.02;35.95;94775.94;4938263;28;20314;-59
2022/08/18 09:37:31;;;;;;;5.22;4.50;;;;;;;28.19;33.95;94772.97;4958907;28;20704;-59
2022/08/18 09:43:06;;;;;;;9.68;4.88;;;;;;;28.36;33.62;94765.41;4960730;28;20270;-59
2022/08/18 09:45:32;;;;;;;6.05;5.20;;;;;;;28.53;34.14;94771.41;5029196;28;20249;-58
2022/08/18 09:48:11;;;;;;;5.15;4.60;;;;;;;28.55;33.61;94769.25;5033223;28;20332;-59
2022/08/18 09:51:14;;;;;;;5.45;4.97;;;;;;;28.69;34.06;94774.94;5033017;28;20384;-58
2022/08/18 09:53:46;;;;;;;6.38;4.57;;;;;;;28.85;32.86;94769.53;5043957;28;20220;-60
2022/08/18 09:56:16;;;;;;;5.28;4.78;;;;;;;28.83;33.83;94761.66;5045079;28;20202;-62
2022/08/18 09:58:49;;;;;;;6.63;4.05;;;;;;;28.92;32.08;94751.09;5035814;28;20595;-59
2022/08/18 10:01:33;;;;;;;5.80;4.55;;;;;;;28.69;33.05;94756.00;5026493;28;20214;-59
2022/08/18 10:04:13;;;;;;;5.03;4.07;;;;;;;28.77;33.29;94749.22;5031932;28;20242;-59
2022/08/18 10:06:44;;;;;;;4.68;4.30;;;;;;;28.62;34.14;94750.03;5031252;28;20222;-60
2022/08/18 10:09:28;;;;;;;4.80;4.32;;;;;;;28.66;33.43;94750.31;5031888;28;20218;-59
2022/08/18 10:11:55;;;;;;;5.10;4.70;;;;;;;28.80;33.96;94744.06;5044406;28;20274;-59
2022/08/18 10:14:36;;;;;;;4.60;4.30;;;;;;;29.05;33.47;94745.13;5039451;28;20303;-59
2022/08/18 10:17:49;;;;;;;5.22;4.72;;;;;;;29.36;32.91;94740.44;5033306;28;20209;-60
2022/08/18 10:20:38;;;;;;;5.15;4.65;;;;;;;29.54;30.96;94740.91;4954561;28;20231;-60
2022/08/18 10:23:06;;;;;;;4.93;4.43;;;;;;;29.57;31.42;94738.47;4950134;28;20220;-59
2022/08/18 10:25:40;;;;;;;4.63;4.25;;;;;;;29.62;32.53;94732.22;4934367;28;20234;-60
2022/08/18 10:28:09;;;;;;;4.97;4.57;;;;;;;29.78;31.79;94728.38;4949358;28;20276;-59
2022/08/18 10:30:35;;;;;;;4.85;4.53;;;;;;;29.76;31.77;94738.69;4947006;28;20725;-60
2022/08/18 10:33:06;;;;;;;6.10;4.45;;;;;;;29.88;30.11;94736.47;4946773;28;20240;-58
2022/08/18 10:35:34;;;;;;;4.90;4.50;;;;;;;30.02;30.06;94725.78;4950075;28;20295;-59
2022/08/18 10:38:12;;;;;;;4.53;4.22;;;;;;;30.20;30.03;94716.16;4957808;28;20338;-60
2022/08/18 10:40:42;;;;;;;5.00;4.50;;;;;;;30.31;28.49;94727.78;4941433;28;20251;-59
2022/08/18 10:43:18;;;;;;;4.88;4.45;;;;;;;30.30;28.72;94726.16;4934585;28;20263;-61
2022/08/18 10:45:46;;;;;;;4.50;4.10;;;;;;;30.43;29.02;94724.72;4951367;28;20240;-59
2022/08/18 10:48:20;;;;;;;5.13;4.38;;;;;;;30.47;28.95;94714.91;4955744;28;20728;-60
2022/08/18 10:50:51;;;;;;;4.32;3.95;;;;;;;30.58;29.84;94710.19;4992005;28;20249;-59
2022/08/18 10:53:26;;;;;;;4.80;4.15;;;;;;;30.61;29.35;94715.03;5033367;28;20214;-60
2022/08/18 10:55:52;;;;;;;5.40;4.40;;;;;;;30.67;29.06;94706.59;5030037;28;20323;-60
2022/08/18 10:58:26;;;;;;;4.85;4.28;;;;;;;30.80;28.97;94707.84;5033521;28;20225;-59
2022/08/18 11:01:23;;;;;;;4.78;4.30;;;;;;;30.96;28.73;94709.31;5039409;28;20227;-60
2022/08/18 11:04:02;;;;;;;6.72;5.00;;;;;;;31.12;27.67;94701.81;5034104;28;20244;-59
2022/08/18 11:06:35;;;;;;;5.25;4.18;;;;;;;31.12;27.79;94704.53;5036709;28;20476;-59
2022/08/18 11:09:01;;;;;;;4.93;4.40;;;;;;;31.23;28.14;94693.56;5030764;28;20218;-59
2022/08/18 11:11:41;;;;;;;6.25;4.32;;;;;;;31.14;27.51;94691.47;5033984;28;20281;-60
2022/08/18 11:14:07;;;;;;;4.68;4.25;;;;;;;30.90;28.07;94691.47;5030785;28;20237;-60
2022/08/18 11:16:43;;;;;;;4.20;3.90;;;;;;;30.59;28.96;94690.94;5039004;28;20560;-60
2022/08/18 11:19:13;;;;;;;5.10;3.88;;;;;;;30.86;27.01;94689.63;5043333;28;20228;-59
2022/08/18 11:21:50;;;;;;;4.40;3.97;;;;;;;31.16;26.42;94686.53;5036458;28;20225;-60
2022/08/18 11:24:27;;;;;;;3.88;3.53;;;;;;;30.91;26.70;94684.13;5040139;28;20279;-60
2022/08/18 11:26:55;;;;;;;4.47;4.10;;;;;;;30.86;27.51;94690.41;5032307;28;20253;-60
2022/08/18 11:29:34;;;;;;;6.18;3.67;;;;;;;30.78;26.58;94689.09;5034075;28;20413;-59
2022/08/18 11:32:14;;;;;;;4.55;4.22;;;;;;;30.71;27.01;94685.94;5043438;28;20217;-60
2022/08/18 11:34:47;;;;;;;4.35;4.05;;;;;;;31.14;27.82;94694.19;5036791;28;20320;-59
2022/08/18 11:37:35;;;;;;;4.47;4.18;;;;;;;31.56;27.14;94692.59;5039567;28;20325;-60
2022/08/18 11:40:04;;;;;;;4.65;4.05;;;;;;;31.85;26.63;94683.53;5040507;28;20241;-61
2022/08/18 11:42:34;;;;;;;4.60;4.20;;;;;;;32.14;26.50;94688.03;5037278;28;20256;-59
2022/08/18 11:45:30;;;;;;;5.50;4.28;;;;;;;32.01;25.75;94686.88;5034257;28;20256;-59
2022/08/18 11:48:01;;;;;;;4.00;3.70;;;;;;;32.01;23.98;94693.09;5030245;28;20594;-59
2022/08/18 11:50:31;;;;;;;3.90;3.60;;;;;;;32.01;24.98;94679.50;5044150;28;20241;-59
2022/08/18 11:53:23;;;;;;;4.30;3.83;;;;;;;32.18;24.46;94678.16;5042392;28;20220;-60
2022/08/18 11:56:19;;;;;;;4.53;4.13;;;;;;;32.40;25.55;94675.63;5039908;28;20237;-64
2022/08/18 11:58:54;;;;;;;4.15;3.70;;;;;;;32.73;25.01;94667.47;5040496;28;20230;-60
2022/08/18 12:01:45;;;;;;;4.88;4.07;;;;;;;32.93;24.11;94674.44;5037157;28;20224;-58
2022/08/18 12:04:20;;;;;;;4.78;4.28;;;;;;;33.01;24.92;94664.81;5035933;28;20331;-60
2022/08/18 12:06:49;;;;;;;4.07;3.78;;;;;;;33.15;23.47;94662.91;5032158;28;20226;-59
2022/08/18 12:09:44;;;;;;;4.10;3.80;;;;;;;33.36;23.42;94657.81;5036968;28;20262;-62
2022/08/18 12:12:15;;;;;;;4.47;4.18;;;;;;;33.16;24.11;94659.06;5039440;28;20225;-60